Time;durP1;ratioP1;P1;durP2;ratioP2;P2;SDS_P1;SDS_P2;PMS_P1;PMS_P2;Temp;Humidity;BMP_temperature;BMP_pressure;BME280_temperature;BME280_humidity;BME280_pressure;Samples;Min_cycle;Max_cycle;Signal;HPM_P1;HPM_P2
2021/10/10 00:00:51;;;;;;;20.70;11.93;;;;;;;6.65;97.19;97417.88;5059999;28;20075;-63
2021/10/10 00:03:17;;;;;;;23.20;12.50;;;;;;;6.56;97.87;97410.88;5054123;28;20071;-61
2021/10/10 00:05:43;;;;;;;32.40;13.07;;;;;;;6.53;97.33;97416.94;5060179;28;20071;-60
2021/10/10 00:08:09;;;;;;;26.63;13.38;;;;;;;6.54;97.89;97418.56;5049547;28;20075;-63
2021/10/10 00:10:35;;;;;;;21.50;12.20;;;;;;;6.45;98.14;97413.13;5059629;28;20044;-62
2021/10/10 00:13:00;;;;;;;24.20;12.73;;;;;;;6.57;97.15;97413.28;5059381;28;20047;-62
2021/10/10 00:15:27;;;;;;;23.75;13.45;;;;;;;6.44;97.82;97411.50;5054239;28;20041;-62
2021/10/10 00:17:52;;;;;;;31.08;13.02;;;;;;;6.41;98.00;97417.59;5059384;28;20131;-62
2021/10/10 00:20:18;;;;;;;29.83;12.88;;;;;;;6.37;98.23;97420.16;5054402;28;20520;-62
2021/10/10 00:22:44;;;;;;;23.85;13.18;;;;;;;6.37;98.28;97414.72;5059588;28;20071;-60
2021/10/10 00:25:10;;;;;;;21.27;11.98;;;;;;;6.32;97.98;97412.19;5049000;28;20091;-63
2021/10/10 00:27:37;;;;;;;20.10;11.13;;;;;;;6.34;97.32;97409.94;5056991;28;20119;-62
2021/10/10 00:30:07;;;;;;;25.83;12.80;;;;;;;6.33;97.28;97405.59;5058768;28;20063;-62
2021/10/10 00:32:33;;;;;;;25.48;12.73;;;;;;;6.21;98.36;97411.69;5054689;28;20123;-58
2021/10/10 00:34:58;;;;;;;21.55;12.02;;;;;;;6.25;98.52;97407.22;5073607;28;20127;-61
2021/10/10 00:37:24;;;;;;;26.30;13.15;;;;;;;6.24;97.78;97407.53;5051161;28;21009;-62
2021/10/10 00:39:50;;;;;;;21.20;12.63;;;;;;;6.25;97.88;97407.22;5054453;28;20059;-62
2021/10/10 00:42:15;;;;;;;26.85;11.80;;;;;;;6.16;98.01;97400.97;5052726;28;20094;-60
2021/10/10 00:44:44;;;;;;;26.17;13.00;;;;;;;6.17;97.77;97405.28;5040451;28;20537;-59
2021/10/10 00:47:11;;;;;;;23.90;11.90;;;;;;;6.20;97.77;97409.28;5053334;28;20040;-62
2021/10/10 00:49:37;;;;;;;28.75;12.15;;;;;;;6.18;97.77;97406.09;5056081;28;20127;-61
2021/10/10 00:52:04;;;;;;;26.45;11.82;;;;;;;6.09;98.31;97406.09;5047416;28;20087;-61
2021/10/10 00:54:31;;;;;;;25.40;11.32;;;;;;;5.96;98.46;97402.41;5055319;28;20519;-62
2021/10/10 00:56:57;;;;;;;22.63;11.43;;;;;;;5.92;99.16;97401.41;5043480;28;20140;-62
2021/10/10 00:59:24;;;;;;;23.70;12.52;;;;;;;5.89;99.11;97402.06;5056644;28;20672;-62
2021/10/10 01:01:50;;;;;;;25.77;11.88;;;;;;;5.83;99.52;97406.03;5069728;28;20043;-61
2021/10/10 01:04:16;;;;;;;23.02;11.23;;;;;;;5.73;99.97;97399.78;5062477;28;20071;-61
2021/10/10 01:06:42;;;;;;;21.90;11.35;;;;;;;5.78;100.00;97400.75;5059615;28;20401;-61
2021/10/10 01:09:08;;;;;;;23.02;10.80;;;;;;;5.75;99.87;97411.16;5048558;28;20044;-60
2021/10/10 01:11:35;;;;;;;23.17;11.45;;;;;;;5.78;99.80;97403.47;5055440;28;20567;-62
2021/10/10 01:14:01;;;;;;;21.73;11.45;;;;;;;5.70;99.59;97416.72;5054158;28;20048;-61
2021/10/10 01:16:26;;;;;;;23.58;10.43;;;;;;;5.71;100.00;97414.81;5035525;28;20056;-63
2021/10/10 01:18:55;;;;;;;24.08;11.98;;;;;;;5.68;99.85;97410.81;5056169;28;20123;-62
2021/10/10 01:21:21;;;;;;;26.38;12.27;;;;;;;5.60;100.00;97408.06;5050917;28;20278;-62
2021/10/10 01:23:46;;;;;;;26.00;12.43;;;;;;;5.59;100.00;97407.28;5058445;28;20040;-62
2021/10/10 01:26:12;;;;;;;24.52;11.50;;;;;;;5.45;100.00;97409.31;5053337;28;20409;-61
2021/10/10 01:28:37;;;;;;;25.25;11.98;;;;;;;5.41;100.00;97408.34;5054810;28;20078;-62
2021/10/10 01:31:02;;;;;;;22.98;12.00;;;;;;;5.36;100.00;97403.84;5063708;28;20405;-60
2021/10/10 01:33:28;;;;;;;27.58;12.52;;;;;;;5.29;100.00;97414.38;5065791;28;20036;-60
2021/10/10 01:35:53;;;;;;;26.60;12.30;;;;;;;5.30;100.00;97405.13;5070246;28;20116;-62
2021/10/10 01:38:19;;;;;;;23.20;12.15;;;;;;;5.26;100.00;97402.25;5056384;28;20430;-62
2021/10/10 01:40:46;;;;;;;22.90;11.63;;;;;;;5.28;100.00;97402.72;5038733;28;1057694;-61
2021/10/10 01:43:12;;;;;;;24.60;12.63;;;;;;;5.28;100.00;97399.22;5073065;28;20044;-62
2021/10/10 01:45:38;;;;;;;25.80;12.82;;;;;;;5.28;100.00;97397.28;5068967;28;20132;-62
2021/10/10 01:48:04;;;;;;;21.60;11.80;;;;;;;5.32;100.00;97389.31;5066669;28;20054;-62
2021/10/10 01:50:32;;;;;;;28.83;12.38;;;;;;;5.25;100.00;97397.91;5072783;28;20036;-62
2021/10/10 01:52:58;;;;;;;26.73;13.10;;;;;;;5.32;100.00;97402.91;5068140;28;20072;-62
2021/10/10 01:55:23;;;;;;;27.50;11.98;;;;;;;5.24;100.00;97401.75;5081476;28;20436;-62
2021/10/10 01:57:48;;;;;;;21.17;11.82;;;;;;;5.25;100.00;97386.25;5088363;28;20040;-61
2021/10/10 02:00:14;;;;;;;22.95;12.40;;;;;;;5.15;100.00;97387.34;5092674;28;20044;-62
2021/10/10 02:02:40;;;;;;;24.52;12.00;;;;;;;5.06;100.00;97386.50;5082551;28;20043;-63
2021/10/10 02:05:06;;;;;;;22.30;11.43;;;;;;;4.98;100.00;97393.50;5054603;28;20040;-61
2021/10/10 02:07:32;;;;;;;28.17;11.70;;;;;;;4.97;100.00;97390.00;5062737;28;20079;-62
2021/10/10 02:09:57;;;;;;;25.90;12.15;;;;;;;5.00;100.00;97383.13;5067772;28;20048;-62
2021/10/10 02:12:23;;;;;;;21.58;11.55;;;;;;;5.02;100.00;97385.53;5081237;28;20074;-63
2021/10/10 02:14:48;;;;;;;27.17;11.50;;;;;;;4.96;100.00;97385.66;5089575;28;20040;-62
2021/10/10 02:17:14;;;;;;;20.95;11.75;;;;;;;4.91;100.00;97387.72;5060818;28;20040;-64
2021/10/10 02:19:39;;;;;;;25.55;10.60;;;;;;;4.91;100.00;97383.09;5069159;28;20055;-62
2021/10/10 02:22:05;;;;;;;21.88;11.77;;;;;;;4.83;100.00;97388.50;5064531;28;20052;-62
2021/10/10 02:24:30;;;;;;;26.08;11.85;;;;;;;4.81;100.00;97382.56;5060761;28;20404;-61
2021/10/10 02:26:55;;;;;;;26.38;12.10;;;;;;;4.71;100.00;97378.22;5053764;28;20040;-62
2021/10/10 02:29:21;;;;;;;26.63;12.85;;;;;;;4.64;100.00;97378.66;5063132;28;20930;-62
2021/10/10 02:31:47;;;;;;;24.05;12.57;;;;;;;4.60;100.00;97389.31;5036117;28;20045;-61
2021/10/10 02:34:14;;;;;;;21.80;11.73;;;;;;;4.67;100.00;97391.59;5066071;28;20041;-61
2021/10/10 02:36:42;;;;;;;24.17;12.93;;;;;;;4.74;100.00;97391.97;5064800;28;20035;-61
2021/10/10 02:39:08;;;;;;;23.92;12.50;;;;;;;4.76;100.00;97397.88;5068222;28;20440;-61
2021/10/10 02:41:34;;;;;;;26.08;12.13;;;;;;;4.85;100.00;97391.69;5039128;28;20493;-62
2021/10/10 02:43:59;;;;;;;23.30;11.77;;;;;;;4.87;100.00;97392.19;5067028;28;20058;-61
2021/10/10 02:46:25;;;;;;;21.92;11.88;;;;;;;4.82;100.00;97401.25;5053263;28;20502;-61
2021/10/10 02:48:51;;;;;;;23.17;12.27;;;;;;;4.92;100.00;97398.28;5073427;28;20054;-61
2021/10/10 02:51:16;;;;;;;26.50;11.80;;;;;;;4.90;100.00;97391.56;5051081;28;20047;-61
2021/10/10 02:53:41;;;;;;;23.83;12.32;;;;;;;4.79;100.00;97394.53;5071480;28;20036;-59
2021/10/10 02:56:07;;;;;;;28.80;12.73;;;;;;;4.63;100.00;97400.66;5067747;28;20040;-58
2021/10/10 02:58:33;;;;;;;24.58;12.23;;;;;;;4.46;100.00;97393.22;5072192;28;20097;-61
2021/10/10 03:00:58;;;;;;;28.67;12.07;;;;;;;4.39;100.00;97391.75;5065535;28;20052;-63
2021/10/10 03:03:24;;;;;;;25.92;11.85;;;;;;;4.29;100.00;97393.94;5052892;28;20471;-60
2021/10/10 03:05:50;;;;;;;23.15;12.23;;;;;;;4.33;100.00;97390.28;5040007;28;20052;-60
2021/10/10 03:08:15;;;;;;;27.10;14.18;;;;;;;4.16;100.00;97388.25;5056356;28;20067;-61
2021/10/10 03:10:41;;;;;;;26.67;13.95;;;;;;;4.21;100.00;97387.31;5067850;28;20049;-61
2021/10/10 03:13:07;;;;;;;26.58;13.63;;;;;;;4.16;100.00;97392.84;5060159;28;20122;-61
2021/10/10 03:15:38;;;;;;;28.85;13.20;;;;;;;4.21;100.00;97385.41;5070572;28;20386;-60
2021/10/10 03:18:04;;;;;;;26.55;12.85;;;;;;;4.16;100.00;97393.69;5059782;28;20040;-60
2021/10/10 03:20:29;;;;;;;27.38;11.57;;;;;;;3.91;100.00;97394.28;5059722;28;20105;-61
2021/10/10 03:22:55;;;;;;;29.00;13.45;;;;;;;3.76;100.00;97387.28;5065645;28;20122;-63
2021/10/10 03:25:20;;;;;;;21.63;12.70;;;;;;;3.90;100.00;97385.31;5062700;28;20124;-64
2021/10/10 03:27:46;;;;;;;25.30;13.63;;;;;;;3.80;100.00;97391.00;5074359;28;20126;-60
2021/10/10 03:30:12;;;;;;;25.52;12.73;;;;;;;3.84;100.00;97389.28;5062084;28;20052;-62
2021/10/10 03:32:37;;;;;;;25.20;12.15;;;;;;;3.82;100.00;97389.56;5067449;28;20060;-62
2021/10/10 03:35:04;;;;;;;26.20;13.07;;;;;;;3.87;100.00;97385.13;5054693;28;20078;-61
2021/10/10 03:37:29;;;;;;;28.25;12.48;;;;;;;3.82;100.00;97386.84;5049119;28;20126;-61
2021/10/10 03:39:56;;;;;;;25.65;12.32;;;;;;;3.82;100.00;97386.84;5067651;28;20051;-58
2021/10/10 03:42:22;;;;;;;22.88;12.85;;;;;;;3.92;100.00;97393.94;5072997;28;20052;-62
2021/10/10 03:44:47;;;;;;;21.65;11.60;;;;;;;3.86;100.00;97394.38;5067525;28;20565;-62
2021/10/10 03:47:15;;;;;;;25.15;12.40;;;;;;;3.81;100.00;97396.09;5054890;28;20127;-62
2021/10/10 03:49:41;;;;;;;25.10;12.55;;;;;;;3.70;100.00;97393.91;5025238;28;20132;-62
2021/10/10 03:52:07;;;;;;;25.42;12.32;;;;;;;3.78;100.00;97399.41;5050666;28;20036;-63
2021/10/10 03:57:07;;;;;;;25.65;12.15;;;;;;;3.82;100.00;97405.03;5056453;28;20071;-63
2021/10/10 03:59:32;;;;;;;20.95;11.20;;;;;;;3.79;100.00;97397.50;5060722;28;20165;-61
2021/10/10 04:02:05;;;;;;;22.77;12.15;;;;;;;3.72;100.00;97397.13;5054945;28;20083;-59
2021/10/10 04:04:33;;;;;;;25.60;12.75;;;;;;;3.74;100.00;97394.91;5066233;28;20040;-62
2021/10/10 04:06:59;;;;;;;25.85;11.55;;;;;;;3.87;100.00;97399.50;5041708;28;20044;-61
2021/10/10 04:09:24;;;;;;;25.33;12.57;;;;;;;3.81;100.00;97398.78;5047663;28;20047;-63
2021/10/10 04:11:49;;;;;;;27.33;12.45;;;;;;;3.85;100.00;97401.69;5057250;28;20044;-63
2021/10/10 04:14:15;;;;;;;24.90;13.27;;;;;;;3.85;100.00;97404.41;5059889;28;20561;-61
2021/10/10 04:16:40;;;;;;;27.52;12.88;;;;;;;3.89;100.00;97404.59;5056985;28;20037;-61
2021/10/10 04:19:06;;;;;;;24.30;12.48;;;;;;;3.79;100.00;97403.72;5032753;28;20044;-62
2021/10/10 04:21:31;;;;;;;23.35;12.80;;;;;;;3.69;100.00;97401.25;5052044;28;20044;-62
2021/10/10 04:23:57;;;;;;;31.25;14.68;;;;;;;3.68;100.00;97396.13;5057337;28;20064;-64
2021/10/10 04:26:22;;;;;;;28.70;13.80;;;;;;;3.61;100.00;97400.03;5062722;28;20174;-62
2021/10/10 04:28:47;;;;;;;24.25;13.60;;;;;;;3.54;100.00;97402.38;5062867;28;20094;-63
2021/10/10 04:31:13;;;;;;;24.02;12.60;;;;;;;3.67;100.00;97405.34;5060407;28;20086;-63
2021/10/10 04:33:39;;;;;;;30.42;15.15;;;;;;;3.69;100.00;97406.66;5064520;28;20036;-61
2021/10/10 04:36:04;;;;;;;36.67;13.60;;;;;;;3.64;100.00;97407.56;5062684;28;20090;-61
2021/10/10 04:38:29;;;;;;;28.52;13.57;;;;;;;3.59;100.00;97409.59;5071087;28;20123;-61
2021/10/10 04:40:55;;;;;;;27.50;12.82;;;;;;;3.64;100.00;97404.88;5079425;28;20743;-60
2021/10/10 04:43:20;;;;;;;28.00;13.95;;;;;;;3.56;100.00;97402.06;5065992;28;20051;-62
2021/10/10 04:45:45;;;;;;;28.35;14.52;;;;;;;3.52;100.00;97404.56;5063615;28;20072;-62
2021/10/10 04:48:11;;;;;;;34.90;16.10;;;;;;;3.53;100.00;97405.38;5060947;28;20130;-62
2021/10/10 04:50:36;;;;;;;26.80;14.40;;;;;;;3.37;100.00;97408.41;5059487;28;20043;-62
2021/10/10 04:53:02;;;;;;;28.27;13.45;;;;;;;3.38;100.00;97410.00;5059047;28;20127;-61
2021/10/10 04:55:27;;;;;;;30.33;13.80;;;;;;;3.36;100.00;97417.63;5057496;28;20056;-62
2021/10/10 04:57:53;;;;;;;26.85;13.45;;;;;;;3.29;100.00;97413.72;5070166;28;20094;-63
2021/10/10 05:00:18;;;;;;;23.98;13.02;;;;;;;3.39;100.00;97408.91;5055147;28;20036;-62
2021/10/10 05:02:43;;;;;;;35.50;14.45;;;;;;;3.42;100.00;97421.84;5045792;28;20044;-61
2021/10/10 05:05:09;;;;;;;32.10;14.38;;;;;;;3.37;100.00;97419.25;5043692;28;20075;-62
2021/10/10 05:07:35;;;;;;;30.17;15.40;;;;;;;3.27;100.00;97418.66;5074909;28;20048;-62
2021/10/10 05:10:00;;;;;;;27.45;15.30;;;;;;;3.21;100.00;97424.16;5066831;28;20037;-61
2021/10/10 05:12:25;;;;;;;31.45;16.65;;;;;;;3.13;100.00;97426.75;5060155;28;20048;-62
2021/10/10 05:14:51;;;;;;;32.90;16.63;;;;;;;3.13;100.00;97424.84;5065251;28;20131;-63
2021/10/10 05:17:16;;;;;;;33.40;17.33;;;;;;;3.11;100.00;97426.25;5062764;28;20048;-63
2021/10/10 05:19:42;;;;;;;33.80;16.83;;;;;;;3.05;100.00;97422.84;5070869;28;20036;-62
2021/10/10 05:22:08;;;;;;;42.60;19.38;;;;;;;3.03;100.00;97425.84;5052831;28;20052;-59
2021/10/10 05:24:33;;;;;;;37.35;18.38;;;;;;;3.09;100.00;97423.06;5073433;28;20611;-61
2021/10/10 05:27:00;;;;;;;37.20;18.80;;;;;;;3.13;100.00;97432.16;5061901;28;20040;-61
2021/10/10 05:29:25;;;;;;;37.60;18.55;;;;;;;3.16;100.00;97435.09;5064991;28;20075;-61
2021/10/10 05:31:51;;;;;;;37.33;19.27;;;;;;;3.16;100.00;97437.00;5068156;28;20052;-60
2021/10/10 05:34:16;;;;;;;34.63;17.60;;;;;;;3.18;100.00;97441.00;5062149;28;20040;-62
2021/10/10 05:36:41;;;;;;;36.13;18.05;;;;;;;3.23;100.00;97437.41;5076614;28;20040;-62
2021/10/10 05:39:07;;;;;;;39.80;18.45;;;;;;;3.23;100.00;97449.03;5051254;28;20095;-61
2021/10/10 05:41:32;;;;;;;39.38;20.45;;;;;;;3.25;100.00;97437.91;5051600;28;20044;-61
2021/10/10 05:43:58;;;;;;;37.47;19.52;;;;;;;3.25;100.00;97438.69;5049616;28;20107;-61
2021/10/10 05:46:23;;;;;;;32.83;18.55;;;;;;;3.23;100.00;97445.53;5056136;28;20088;-61
2021/10/10 05:48:49;;;;;;;37.97;18.00;;;;;;;3.24;100.00;97442.53;5067942;28;20059;-59
2021/10/10 05:51:14;;;;;;;35.20;20.23;;;;;;;3.28;100.00;97441.91;5066269;28;20075;-61
2021/10/10 05:53:40;;;;;;;30.67;16.83;;;;;;;3.24;100.00;97439.81;5082583;28;20032;-60
2021/10/10 05:56:06;;;;;;;35.65;19.42;;;;;;;3.24;100.00;97442.53;5077825;28;20131;-60
2021/10/10 05:58:38;;;;;;;35.90;19.85;;;;;;;3.19;100.00;97442.59;5046004;28;20131;-63
2021/10/10 06:01:03;;;;;;;39.65;19.35;;;;;;;3.17;100.00;97446.69;5073080;28;20074;-56
2021/10/10 06:03:29;;;;;;;33.60;19.20;;;;;;;3.23;100.00;97456.34;5084306;28;20075;-61
2021/10/10 06:05:54;;;;;;;37.45;18.85;;;;;;;3.25;100.00;97451.44;5078858;28;20044;-63
2021/10/10 06:08:20;;;;;;;36.90;19.02;;;;;;;3.32;100.00;97453.75;5042154;28;20589;-61
2021/10/10 06:10:45;;;;;;;39.10;20.23;;;;;;;3.24;100.00;97453.34;5065421;28;20040;-62
2021/10/10 06:13:11;;;;;;;37.75;18.60;;;;;;;3.35;100.00;97461.25;5026822;28;20418;-61
2021/10/10 06:15:39;;;;;;;41.53;20.30;;;;;;;3.49;100.00;97469.38;5066431;28;20040;-63
2021/10/10 06:18:04;;;;;;;51.53;20.13;;;;;;;3.55;100.00;97465.47;5063226;28;20123;-61
2021/10/10 06:20:30;;;;;;;35.03;20.25;;;;;;;3.77;100.00;97475.59;5063779;28;20048;-59
2021/10/10 06:22:55;;;;;;;33.88;17.60;;;;;;;4.00;100.00;97476.47;5082240;28;20035;-61
2021/10/10 06:25:20;;;;;;;44.40;20.15;;;;;;;3.74;100.00;97478.91;5063428;28;20049;-62
2021/10/10 06:27:46;;;;;;;45.40;22.00;;;;;;;3.76;100.00;97473.97;5049195;28;20060;-62
2021/10/10 06:30:11;;;;;;;50.35;24.63;;;;;;;3.78;100.00;97482.59;5074675;28;20036;-63
2021/10/10 06:32:38;;;;;;;50.97;23.70;;;;;;;3.71;100.00;97480.31;5080438;28;20044;-63
2021/10/10 06:35:06;;;;;;;41.58;22.20;;;;;;;3.81;100.00;97473.88;5035494;28;20101;-61
2021/10/10 06:37:31;;;;;;;51.08;23.17;;;;;;;3.80;100.00;97475.00;5057967;28;20201;-62
2021/10/10 06:39:57;;;;;;;41.17;21.70;;;;;;;3.71;100.00;97479.50;5072714;28;20049;-62
2021/10/10 06:42:22;;;;;;;43.95;23.73;;;;;;;3.58;100.00;97478.41;5061933;28;20048;-63
2021/10/10 06:44:47;;;;;;;45.75;23.67;;;;;;;3.41;100.00;97474.41;5062690;28;20474;-62
2021/10/10 06:47:13;;;;;;;46.65;22.02;;;;;;;3.47;100.00;97485.13;5057554;28;20347;-63
2021/10/10 06:49:38;;;;;;;54.20;25.88;;;;;;;3.46;100.00;97484.34;5049185;28;20051;-62
2021/10/10 06:52:04;;;;;;;46.13;23.67;;;;;;;3.51;100.00;97491.53;5065287;28;20075;-62
2021/10/10 06:54:29;;;;;;;56.67;24.90;;;;;;;3.47;100.00;97482.44;5066749;28;20079;-63
2021/10/10 06:56:55;;;;;;;45.85;24.55;;;;;;;3.50;100.00;97492.66;5060775;28;20037;-63
2021/10/10 06:59:20;;;;;;;41.55;22.83;;;;;;;3.50;100.00;97493.47;5066063;28;20032;-60
2021/10/10 07:01:47;;;;;;;48.53;24.13;;;;;;;3.44;100.00;97491.97;5060343;28;20041;-63
2021/10/10 07:04:12;;;;;;;47.03;24.45;;;;;;;3.67;100.00;97503.69;5062156;28;20044;-61
2021/10/10 07:06:37;;;;;;;49.20;24.75;;;;;;;3.51;100.00;97496.97;5066128;28;20039;-61
2021/10/10 07:09:03;;;;;;;63.10;28.10;;;;;;;3.51;100.00;97497.78;5070225;28;20495;-60
2021/10/10 07:11:29;;;;;;;61.78;28.70;;;;;;;3.44;100.00;97500.09;5053419;28;20047;-61
2021/10/10 07:13:54;;;;;;;50.75;25.08;;;;;;;3.53;100.00;97502.88;5061341;28;20127;-60
2021/10/10 07:16:26;;;;;;;48.05;24.50;;;;;;;3.66;100.00;97504.81;5055414;28;20044;-61
2021/10/10 07:18:53;;;;;;;57.60;27.30;;;;;;;3.54;100.00;97507.22;5065087;28;20052;-61
2021/10/10 07:26:46;;;;;;;50.55;25.92;;;;;;;3.57;100.00;97510.13;5058343;28;20044;-60
2021/10/10 07:29:11;;;;;;;58.15;27.80;;;;;;;3.70;100.00;97513.91;5047790;28;20522;-59
2021/10/10 07:31:37;;;;;;;55.70;28.38;;;;;;;3.76;100.00;97504.59;5077722;28;20055;-60
2021/10/10 07:34:02;;;;;;;56.10;24.67;;;;;;;3.76;100.00;97512.72;5067908;28;20442;-62
2021/10/10 07:36:28;;;;;;;58.78;26.15;;;;;;;3.71;100.00;97512.84;5051186;28;20043;-62
2021/10/10 07:38:53;;;;;;;54.97;24.60;;;;;;;3.78;100.00;97507.81;5080839;28;20058;-61
2021/10/10 07:41:19;;;;;;;49.47;25.17;;;;;;;3.70;100.00;97513.91;5050000;28;20049;-60
2021/10/10 07:43:44;;;;;;;59.42;26.17;;;;;;;3.78;100.00;97521.34;5062696;28;20048;-63
2021/10/10 07:46:18;;;;;;;54.97;26.73;;;;;;;3.84;100.00;97511.22;5057370;28;20052;-62
2021/10/10 07:48:43;;;;;;;64.95;30.95;;;;;;;3.83;100.00;97515.84;5058705;28;20064;-62
2021/10/10 07:51:09;;;;;;;59.28;25.70;;;;;;;3.90;100.00;97518.13;5026733;28;20113;-61
2021/10/10 07:53:34;;;;;;;58.80;27.38;;;;;;;3.92;100.00;97518.63;5054354;28;20110;-63
2021/10/10 07:56:00;;;;;;;55.80;24.63;;;;;;;3.93;100.00;97524.84;5056501;28;20036;-61
2021/10/10 07:58:25;;;;;;;53.60;26.70;;;;;;;3.97;100.00;97520.44;5030015;28;20068;-62
2021/10/10 08:00:51;;;;;;;50.45;24.33;;;;;;;4.04;100.00;97520.81;5046356;28;20481;-62
2021/10/10 08:03:16;;;;;;;51.15;24.23;;;;;;;4.11;100.00;97523.94;5052788;28;20521;-62
2021/10/10 08:05:43;;;;;;;49.03;24.52;;;;;;;4.17;100.00;97522.69;5054128;28;20127;-63
2021/10/10 08:08:10;;;;;;;49.63;24.00;;;;;;;4.21;100.00;97533.72;5043050;28;20062;-62
2021/10/10 08:10:36;;;;;;;50.33;23.95;;;;;;;4.48;100.00;97527.44;5048174;28;20040;-62
2021/10/10 08:13:02;;;;;;;51.47;24.48;;;;;;;4.57;100.00;97532.94;5036289;28;20513;-62
2021/10/10 08:15:28;;;;;;;51.03;26.10;;;;;;;4.51;100.00;97529.53;5032101;28;20113;-62
2021/10/10 08:17:54;;;;;;;47.85;22.77;;;;;;;4.46;100.00;97521.50;5053249;28;20148;-61
2021/10/10 08:20:20;;;;;;;52.78;23.90;;;;;;;4.46;100.00;97518.81;5049883;28;20409;-58
2021/10/10 08:22:47;;;;;;;54.53;23.88;;;;;;;4.72;100.00;97523.66;5030952;28;20033;-63
2021/10/10 08:25:13;;;;;;;51.85;23.98;;;;;;;4.78;100.00;97527.84;5043978;28;20035;-62
2021/10/10 08:27:40;;;;;;;50.95;23.90;;;;;;;4.79;100.00;97530.25;5048009;28;20075;-62
2021/10/10 08:30:09;;;;;;;47.60;21.70;;;;;;;4.85;100.00;97527.41;5045927;28;20385;-62
2021/10/10 08:32:35;;;;;;;42.30;21.08;;;;;;;4.98;100.00;97535.47;5053543;28;20036;-61
2021/10/10 08:35:01;;;;;;;44.53;23.02;;;;;;;5.21;100.00;97537.38;5060194;28;20044;-62
2021/10/10 08:37:26;;;;;;;45.28;21.92;;;;;;;5.03;100.00;97539.97;5049367;28;20614;-62
2021/10/10 08:39:52;;;;;;;47.42;21.83;;;;;;;5.17;100.00;97543.44;5047294;28;20041;-65
2021/10/10 08:42:21;;;;;;;40.25;21.08;;;;;;;5.68;100.00;97543.19;5045488;28;20037;-64
2021/10/10 08:44:52;;;;;;;35.13;18.25;;;;;;;6.36;100.00;97542.94;5048635;28;20131;-63
2021/10/10 08:47:18;;;;;;;35.47;16.42;;;;;;;6.73;100.00;97544.22;5048581;28;20041;-63
2021/10/10 08:49:45;;;;;;;33.30;17.27;;;;;;;7.08;97.15;97541.47;5052416;28;20041;-61
2021/10/10 08:52:14;;;;;;;32.40;16.42;;;;;;;7.01;95.34;97541.16;5050721;28;20071;-63
2021/10/10 08:54:41;;;;;;;37.72;16.85;;;;;;;7.28;95.03;97538.06;5049495;28;20443;-63
2021/10/10 08:57:10;;;;;;;31.15;15.18;;;;;;;7.36;94.13;97541.88;5041752;28;20037;-61
2021/10/10 08:59:40;;;;;;;35.92;16.75;;;;;;;7.49;92.96;97542.81;5054862;28;20386;-62
2021/10/10 09:02:09;;;;;;;;;;;;;;;7.64;90.81;97536.81;5051913;28;20040;-62
2021/10/10 09:04:41;;;;;;;31.92;15.95;;;;;;;7.71;92.55;97535.53;5054418;28;19920;-62
2021/10/10 09:07:07;;;;;;;31.42;15.93;;;;;;;7.79;90.02;97529.22;5045169;28;20044;-63
2021/10/10 09:09:35;;;;;;;33.28;16.13;;;;;;;7.94;90.51;97536.03;5059368;28;20089;-60
2021/10/10 09:12:03;;;;;;;32.95;15.77;;;;;;;8.10;89.56;97531.63;5056739;28;20037;-62
2021/10/10 09:14:28;;;;;;;36.00;17.02;;;;;;;8.26;87.96;97533.78;5050915;28;20048;-61
2021/10/10 09:17:10;;;;;;;32.63;15.52;;;;;;;8.04;89.92;97535.69;5054637;28;20159;-63
2021/10/10 09:19:36;;;;;;;33.80;15.45;;;;;;;7.66;90.85;97533.78;5055491;28;20104;-62
2021/10/10 09:22:06;;;;;;;31.52;16.13;;;;;;;7.81;91.03;97535.16;5051138;28;20502;-63
2021/10/10 09:24:32;;;;;;;31.50;15.93;;;;;;;7.94;89.71;97538.78;5051869;28;20063;-64
2021/10/10 09:26:57;;;;;;;33.97;15.32;;;;;;;7.98;88.61;97537.81;5053166;28;20041;-63
2021/10/10 09:29:40;;;;;;;34.33;15.77;;;;;;;7.74;89.99;97535.69;5044666;28;20037;-63
2021/10/10 09:32:20;;;;;;;30.40;15.65;;;;;;;7.77;90.90;97536.94;5046688;28;20052;-62
2021/10/10 09:34:49;;;;;;;36.55;16.65;;;;;;;7.82;90.19;97528.59;5053599;28;20041;-63
2021/10/10 09:37:25;;;;;;;31.10;15.70;;;;;;;7.87;91.40;97533.03;5046411;28;20037;-64
2021/10/10 09:40:22;;;;;;;33.75;16.95;;;;;;;8.18;89.65;97540.91;5052982;28;20646;-63
2021/10/10 09:42:42;;;;;;;30.35;15.95;;;;;;;8.10;88.62;97537.06;5050802;28;20036;-62
2021/10/10 09:45:15;;;;;;;30.80;16.23;;;;;;;7.85;91.57;97544.28;5046621;28;20059;-63
2021/10/10 09:47:56;;;;;;;35.28;17.60;;;;;;;6.92;95.60;97543.09;5054742;28;20043;-63
2021/10/10 09:50:27;;;;;;;35.58;16.70;;;;;;;7.64;94.00;97542.28;5052167;28;20117;-64
2021/10/10 09:53:07;;;;;;;30.60;16.25;;;;;;;7.76;92.20;97538.88;5076430;28;20107;-62
2021/10/10 09:55:37;;;;;;;35.78;17.65;;;;;;;7.27;96.56;97541.94;5076334;28;20044;-62
2021/10/10 09:58:04;;;;;;;33.75;17.85;;;;;;;7.27;98.63;97538.38;5068694;28;20051;-60
2021/10/10 10:00:35;;;;;;;33.65;18.45;;;;;;;7.87;94.39;97533.84;5028508;28;20048;-62
2021/10/10 10:03:10;;;;;;;37.40;17.15;;;;;;;7.42;96.02;97539.81;5066751;28;20055;-63
2021/10/10 10:05:36;;;;;;;32.95;17.48;;;;;;;8.02;93.94;97538.75;5054128;28;20032;-62
2021/10/10 10:08:03;;;;;;;33.63;16.33;;;;;;;7.70;92.80;97536.66;5068890;28;20119;-62
2021/10/10 10:10:31;;;;;;;31.25;16.55;;;;;;;8.14;91.60;97540.78;5069672;28;20043;-62
2021/10/10 10:12:58;;;;;;;29.38;15.48;;;;;;;7.53;93.97;97538.31;5073078;28;20047;-62
2021/10/10 10:15:32;;;;;;;41.65;17.10;;;;;;;7.52;92.39;97539.44;5061387;28;20555;-62
2021/10/10 10:17:58;;;;;;;33.20;16.42;;;;;;;7.52;94.34;97536.69;5060385;23;20052;-61
2021/10/10 10:20:25;;;;;;;31.23;16.17;;;;;;;7.47;93.65;97534.16;5023334;28;20939;-62
2021/10/10 10:22:56;;;;;;;35.75;17.58;;;;;;;7.32;95.94;97537.41;5028170;28;20050;-62
2021/10/10 10:25:23;;;;;;;35.00;17.92;;;;;;;7.67;95.10;97540.84;5029810;28;20519;-64
2021/10/10 10:27:50;;;;;;;31.20;14.98;;;;;;;7.85;92.51;97544.28;5040930;28;20037;-61
2021/10/10 10:30:17;;;;;;;33.10;16.20;;;;;;;7.85;93.75;97542.34;5028607;28;20718;-62
2021/10/10 10:32:45;;;;;;;35.85;16.98;;;;;;;7.54;92.17;97545.34;5027430;28;20111;-61
2021/10/10 10:35:18;;;;;;;34.47;15.95;;;;;;;8.09;90.47;97543.69;5026984;28;20043;-63
2021/10/10 10:37:44;;;;;;;26.33;14.05;;;;;;;8.72;88.47;97543.78;5022071;28;20052;-61
2021/10/10 10:40:15;;;;;;;27.67;14.35;;;;;;;8.90;85.98;97538.97;4996101;28;20676;-60
2021/10/10 10:42:42;;;;;;;29.65;14.10;;;;;;;9.66;82.22;97536.88;5021727;28;20434;-61
2021/10/10 10:45:20;;;;;;;26.88;14.35;;;;;;;9.14;85.31;97532.00;5028467;28;20049;-61
2021/10/10 10:47:47;;;;;;;27.88;13.98;;;;;;;9.83;81.12;97535.06;5041071;28;20564;-62
2021/10/10 10:50:22;;;;;;;28.52;14.07;;;;;;;9.27;82.81;97533.59;5032941;28;20544;-61
2021/10/10 10:53:21;;;;;;;29.25;13.98;;;;;;;8.67;85.15;97537.72;5024308;28;20048;-62
2021/10/10 10:55:54;;;;;;;25.15;12.77;;;;;;;9.92;79.26;97538.50;5041019;28;20041;-61
2021/10/10 10:58:20;;;;;;;22.42;11.32;;;;;;;10.46;76.85;97538.28;5018432;28;20075;-62
2021/10/10 11:00:50;;;;;;;23.08;12.55;;;;;;;10.38;76.99;97541.16;5035097;28;20044;-62
2021/10/10 11:03:23;;;;;;;24.45;12.30;;;;;;;10.52;75.03;97536.88;5036184;28;20037;-61
2021/10/10 11:06:00;;;;;;;23.17;13.02;;;;;;;10.13;75.19;97546.59;5040534;28;20037;-61
2021/10/10 11:08:26;;;;;;;21.77;11.73;;;;;;;10.36;74.61;97546.16;5034387;28;20397;-60
2021/10/10 11:11:03;;;;;;;21.85;11.38;;;;;;;9.81;75.95;97537.34;5041390;28;20052;-62
2021/10/10 11:13:54;;;;;;;20.92;12.23;;;;;;;9.61;77.65;97530.84;5029701;28;20044;-62
2021/10/10 11:16:26;;;;;;;24.23;12.27;;;;;;;9.34;80.26;97531.13;5038118;28;20037;-62
2021/10/10 11:18:54;;;;;;;22.52;11.90;;;;;;;9.09;79.57;97529.47;5049730;28;20061;-63
2021/10/10 11:21:29;;;;;;;24.70;11.43;;;;;;;8.97;80.01;97530.22;5033229;28;20044;-62
2021/10/10 11:23:59;;;;;;;20.20;10.75;;;;;;;8.77;80.10;97527.19;5036898;28;20366;-61
2021/10/10 11:26:26;;;;;;;21.70;11.32;;;;;;;9.13;78.83;97528.47;5034438;28;20057;-61